sensor_id;sensor_type;location;lat;lon;timestamp;temperature;humidity
26182;DHT22;13927;51.534;11.866;2023-02-28T00:01:30;1.20;99.90
26182;DHT22;13927;51.534;11.866;2023-02-28T00:03:59;1.20;99.90
26182;DHT22;13927;51.534;11.866;2023-02-28T00:06:27;1.20;99.90
26182;DHT22;13927;51.534;11.866;2023-02-28T00:08:53;1.20;99.90
26182;DHT22;13927;51.534;11.866;2023-02-28T00:11:19;1.20;99.90
26182;DHT22;13927;51.534;11.866;2023-02-28T00:13:46;1.20;99.90
26182;DHT22;13927;51.534;11.866;2023-02-28T00:16:16;1.20;99.90
26182;DHT22;13927;51.534;11.866;2023-02-28T00:18:43;1.20;99.90
26182;DHT22;13927;51.534;11.866;2023-02-28T00:21:11;1.20;99.90
26182;DHT22;13927;51.534;11.866;2023-02-28T00:23:40;1.20;99.90
26182;DHT22;13927;51.534;11.866;2023-02-28T00:26:06;1.20;99.90
26182;DHT22;13927;51.534;11.866;2023-02-28T00:28:35;1.20;99.90
26182;DHT22;13927;51.534;11.866;2023-02-28T00:31:00;1.20;99.90
26182;DHT22;13927;51.534;11.866;2023-02-28T00:33:27;1.20;99.90
26182;DHT22;13927;51.534;11.866;2023-02-28T00:36:07;1.20;99.90
26182;DHT22;13927;51.534;11.866;2023-02-28T00:38:38;1.20;99.90
26182;DHT22;13927;51.534;11.866;2023-02-28T00:41:04;1.20;99.90
26182;DHT22;13927;51.534;11.866;2023-02-28T00:43:40;1.20;99.90
26182;DHT22;13927;51.534;11.866;2023-02-28T00:46:05;1.20;99.90
26182;DHT22;13927;51.534;11.866;2023-02-28T00:48:32;1.20;99.90
26182;DHT22;13927;51.534;11.866;2023-02-28T00:51:00;1.20;99.90
26182;DHT22;13927;51.534;11.866;2023-02-28T00:53:26;1.20;99.90
26182;DHT22;13927;51.534;11.866;2023-02-28T00:55:52;1.20;99.90
26182;DHT22;13927;51.534;11.866;2023-02-28T00:58:17;1.20;99.90
26182;DHT22;13927;51.534;11.866;2023-02-28T01:00:44;1.20;99.90
26182;DHT22;13927;51.534;11.866;2023-02-28T01:03:14;1.20;99.90
26182;DHT22;13927;51.534;11.866;2023-02-28T01:05:41;1.20;99.90
26182;DHT22;13927;51.534;11.866;2023-02-28T01:08:07;1.20;99.90
26182;DHT22;13927;51.534;11.866;2023-02-28T01:10:33;1.20;99.90
26182;DHT22;13927;51.534;11.866;2023-02-28T01:12:59;1.20;99.90
26182;DHT22;13927;51.534;11.866;2023-02-28T01:15:24;1.20;99.90
26182;DHT22;13927;51.534;11.866;2023-02-28T01:17:50;1.20;99.90
26182;DHT22;13927;51.534;11.866;2023-02-28T01:20:22;1.20;99.90
26182;DHT22;13927;51.534;11.866;2023-02-28T01:22:47;1.20;99.90
26182;DHT22;13927;51.534;11.866;2023-02-28T01:25:13;1.10;99.90
26182;DHT22;13927;51.534;11.866;2023-02-28T01:27:38;1.10;99.90
26182;DHT22;13927;51.534;11.866;2023-02-28T01:30:08;1.10;99.90
26182;DHT22;13927;51.534;11.866;2023-02-28T01:32:35;1.10;99.90
26182;DHT22;13927;51.534;11.866;2023-02-28T01:35:01;1.10;99.90
26182;DHT22;13927;51.534;11.866;2023-02-28T01:37:30;1.00;99.90
26182;DHT22;13927;51.534;11.866;2023-02-28T01:39:56;1.00;99.90
26182;DHT22;13927;51.534;11.866;2023-02-28T01:42:25;1.00;99.90
26182;DHT22;13927;51.534;11.866;2023-02-28T01:45:15;1.00;99.90
26182;DHT22;13927;51.534;11.866;2023-02-28T01:48:00;1.00;99.90
26182;DHT22;13927;51.534;11.866;2023-02-28T01:50:31;1.00;99.90
26182;DHT22;13927;51.534;11.866;2023-02-28T01:53:02;0.90;99.90
26182;DHT22;13927;51.534;11.866;2023-02-28T01:55:31;0.90;99.90
26182;DHT22;13927;51.534;11.866;2023-02-28T01:58:00;0.90;99.90
26182;DHT22;13927;51.534;11.866;2023-02-28T02:00:28;0.90;99.90
26182;DHT22;13927;51.534;11.866;2023-02-28T02:03:01;0.90;99.90
26182;DHT22;13927;51.534;11.866;2023-02-28T02:05:32;0.90;99.90
26182;DHT22;13927;51.534;11.866;2023-02-28T02:08:07;0.90;99.90
26182;DHT22;13927;51.534;11.866;2023-02-28T02:10:39;1.00;99.90
26182;DHT22;13927;51.534;11.866;2023-02-28T02:25:50;0.80;99.90
26182;DHT22;13927;51.534;11.866;2023-02-28T02:31:35;0.70;99.90
26182;DHT22;13927;51.534;11.866;2023-02-28T02:40:29;0.70;99.90
26182;DHT22;13927;51.534;11.866;2023-02-28T02:43:21;0.70;99.90
26182;DHT22;13927;51.534;11.866;2023-02-28T02:46:06;0.60;99.90
26182;DHT22;13927;51.534;11.866;2023-02-28T02:48:38;0.60;99.90
26182;DHT22;13927;51.534;11.866;2023-02-28T02:51:11;0.60;99.90
26182;DHT22;13927;51.534;11.866;2023-02-28T02:53:47;0.60;99.90
26182;DHT22;13927;51.534;11.866;2023-02-28T02:56:22;0.60;99.90
26182;DHT22;13927;51.534;11.866;2023-02-28T02:58:54;0.60;99.90
26182;DHT22;13927;51.534;11.866;2023-02-28T03:01:26;0.60;99.90
26182;DHT22;13927;51.534;11.866;2023-02-28T03:03:57;0.60;99.90
26182;DHT22;13927;51.534;11.866;2023-02-28T03:06:25;0.60;99.90
26182;DHT22;13927;51.534;11.866;2023-02-28T03:08:51;0.60;99.90
26182;DHT22;13927;51.534;11.866;2023-02-28T03:11:18;0.60;99.90
26182;DHT22;13927;51.534;11.866;2023-02-28T03:16:54;0.60;99.90
26182;DHT22;13927;51.534;11.866;2023-02-28T03:19:51;0.60;99.90
26182;DHT22;13927;51.534;11.866;2023-02-28T03:22:49;0.60;99.90
26182;DHT22;13927;51.534;11.866;2023-02-28T03:28:42;0.60;99.90
26182;DHT22;13927;51.534;11.866;2023-02-28T03:31:33;0.50;99.90
26182;DHT22;13927;51.534;11.866;2023-02-28T03:34:11;0.50;99.90
26182;DHT22;13927;51.534;11.866;2023-02-28T03:36:47;0.50;99.90
26182;DHT22;13927;51.534;11.866;2023-02-28T03:39:20;0.40;99.90
26182;DHT22;13927;51.534;11.866;2023-02-28T03:41:57;0.40;99.90
26182;DHT22;13927;51.534;11.866;2023-02-28T03:44:41;0.40;99.90
26182;DHT22;13927;51.534;11.866;2023-02-28T03:47:19;0.50;99.90
26182;DHT22;13927;51.534;11.866;2023-02-28T03:49:56;0.50;99.90
26182;DHT22;13927;51.534;11.866;2023-02-28T03:52:30;0.50;99.90
26182;DHT22;13927;51.534;11.866;2023-02-28T03:55:02;0.50;99.90
26182;DHT22;13927;51.534;11.866;2023-02-28T04:01:20;0.50;99.90
26182;DHT22;13927;51.534;11.866;2023-02-28T04:03:36;0.50;99.90
26182;DHT22;13927;51.534;11.866;2023-02-28T04:06:03;0.50;99.90
26182;DHT22;13927;51.534;11.866;2023-02-28T04:08:29;0.40;99.90
26182;DHT22;13927;51.534;11.866;2023-02-28T04:11:06;0.40;99.90
26182;DHT22;13927;51.534;11.866;2023-02-28T04:13:34;0.50;99.90
26182;DHT22;13927;51.534;11.866;2023-02-28T04:15:59;0.40;99.90
26182;DHT22;13927;51.534;11.866;2023-02-28T04:18:25;0.50;99.90
26182;DHT22;13927;51.534;11.866;2023-02-28T04:20:51;0.50;99.90
26182;DHT22;13927;51.534;11.866;2023-02-28T04:23:16;0.50;99.90
26182;DHT22;13927;51.534;11.866;2023-02-28T04:25:42;0.50;99.90
26182;DHT22;13927;51.534;11.866;2023-02-28T04:28:08;0.50;99.90
26182;DHT22;13927;51.534;11.866;2023-02-28T04:30:35;0.50;99.90
26182;DHT22;13927;51.534;11.866;2023-02-28T04:33:01;0.50;99.90
26182;DHT22;13927;51.534;11.866;2023-02-28T04:35:26;0.50;99.90
26182;DHT22;13927;51.534;11.866;2023-02-28T04:37:52;0.40;99.90
26182;DHT22;13927;51.534;11.866;2023-02-28T04:40:18;0.40;99.90
26182;DHT22;13927;51.534;11.866;2023-02-28T04:42:44;0.40;99.90
26182;DHT22;13927;51.534;11.866;2023-02-28T04:45:09;0.40;99.90
26182;DHT22;13927;51.534;11.866;2023-02-28T04:47:36;0.40;99.90
26182;DHT22;13927;51.534;11.866;2023-02-28T04:50:02;0.30;99.90
26182;DHT22;13927;51.534;11.866;2023-02-28T04:52:29;0.30;99.90
26182;DHT22;13927;51.534;11.866;2023-02-28T04:54:55;0.30;99.90
26182;DHT22;13927;51.534;11.866;2023-02-28T04:57:20;0.20;99.90
26182;DHT22;13927;51.534;11.866;2023-02-28T04:59:46;0.20;99.90
26182;DHT22;13927;51.534;11.866;2023-02-28T05:02:12;0.10;99.90
26182;DHT22;13927;51.534;11.866;2023-02-28T05:04:37;0.00;99.90
26182;DHT22;13927;51.534;11.866;2023-02-28T05:07:03;0.00;99.90
26182;DHT22;13927;51.534;11.866;2023-02-28T05:09:29;0.00;99.90
26182;DHT22;13927;51.534;11.866;2023-02-28T05:11:55;-0.10;99.90
26182;DHT22;13927;51.534;11.866;2023-02-28T05:14:22;-0.20;99.90
26182;DHT22;13927;51.534;11.866;2023-02-28T05:16:47;-0.20;99.90
26182;DHT22;13927;51.534;11.866;2023-02-28T05:19:13;-0.20;99.90
26182;DHT22;13927;51.534;11.866;2023-02-28T05:21:53;-0.30;99.90
26182;DHT22;13927;51.534;11.866;2023-02-28T05:24:20;-0.30;99.90
26182;DHT22;13927;51.534;11.866;2023-02-28T05:26:50;-0.40;99.90
26182;DHT22;13927;51.534;11.866;2023-02-28T05:29:18;-0.40;99.90
26182;DHT22;13927;51.534;11.866;2023-02-28T05:31:43;-0.50;99.90
26182;DHT22;13927;51.534;11.866;2023-02-28T05:34:09;-0.50;99.90
26182;DHT22;13927;51.534;11.866;2023-02-28T05:36:39;-0.60;99.90
26182;DHT22;13927;51.534;11.866;2023-02-28T05:39:06;-0.60;99.90
26182;DHT22;13927;51.534;11.866;2023-02-28T05:41:32;-0.60;99.90
26182;DHT22;13927;51.534;11.866;2023-02-28T05:43:58;-0.70;99.90
26182;DHT22;13927;51.534;11.866;2023-02-28T05:46:25;-0.80;99.90
26182;DHT22;13927;51.534;11.866;2023-02-28T05:48:50;-0.80;99.90
26182;DHT22;13927;51.534;11.866;2023-02-28T05:51:16;-0.90;99.90
26182;DHT22;13927;51.534;11.866;2023-02-28T05:53:43;-1.00;99.90
26182;DHT22;13927;51.534;11.866;2023-02-28T05:56:09;-1.00;99.90
26182;DHT22;13927;51.534;11.866;2023-02-28T05:58:34;-1.10;99.90
26182;DHT22;13927;51.534;11.866;2023-02-28T06:01:18;-1.10;99.90
26182;DHT22;13927;51.534;11.866;2023-02-28T06:03:46;-1.10;99.90
26182;DHT22;13927;51.534;11.866;2023-02-28T06:06:12;-1.20;99.90
26182;DHT22;13927;51.534;11.866;2023-02-28T06:08:38;-1.20;99.90
26182;DHT22;13927;51.534;11.866;2023-02-28T06:11:04;-1.20;99.90
26182;DHT22;13927;51.534;11.866;2023-02-28T06:13:32;-1.30;99.90
26182;DHT22;13927;51.534;11.866;2023-02-28T06:16:00;-1.30;99.90
26182;DHT22;13927;51.534;11.866;2023-02-28T06:18:26;-1.30;99.90
26182;DHT22;13927;51.534;11.866;2023-02-28T06:20:53;-1.30;99.90
26182;DHT22;13927;51.534;11.866;2023-02-28T06:23:20;-1.30;99.90
26182;DHT22;13927;51.534;11.866;2023-02-28T06:25:46;-1.40;99.90
26182;DHT22;13927;51.534;11.866;2023-02-28T06:28:12;-1.40;99.90
26182;DHT22;13927;51.534;11.866;2023-02-28T06:30:38;-1.40;99.90
26182;DHT22;13927;51.534;11.866;2023-02-28T06:33:04;-1.40;99.90
26182;DHT22;13927;51.534;11.866;2023-02-28T06:35:31;-1.40;99.90
26182;DHT22;13927;51.534;11.866;2023-02-28T06:37:57;-1.40;99.90
26182;DHT22;13927;51.534;11.866;2023-02-28T06:40:23;-1.30;99.90
26182;DHT22;13927;51.534;11.866;2023-02-28T06:42:49;-1.40;99.90
26182;DHT22;13927;51.534;11.866;2023-02-28T06:45:14;-1.40;99.90
26182;DHT22;13927;51.534;11.866;2023-02-28T06:47:41;-1.40;99.90
26182;DHT22;13927;51.534;11.866;2023-02-28T06:50:09;-1.40;99.90
26182;DHT22;13927;51.534;11.866;2023-02-28T06:52:35;-1.30;99.90
26182;DHT22;13927;51.534;11.866;2023-02-28T06:55:06;-1.30;99.90
26182;DHT22;13927;51.534;11.866;2023-02-28T06:57:34;-1.30;99.90
26182;DHT22;13927;51.534;11.866;2023-02-28T07:00:02;-1.30;99.90
26182;DHT22;13927;51.534;11.866;2023-02-28T07:02:33;-1.30;99.90
26182;DHT22;13927;51.534;11.866;2023-02-28T07:04:59;-1.30;99.90
26182;DHT22;13927;51.534;11.866;2023-02-28T07:07:25;-1.30;99.90
26182;DHT22;13927;51.534;11.866;2023-02-28T07:09:50;-1.30;99.90
26182;DHT22;13927;51.534;11.866;2023-02-28T07:12:16;-1.30;99.90
26182;DHT22;13927;51.534;11.866;2023-02-28T07:14:42;-1.20;99.90
26182;DHT22;13927;51.534;11.866;2023-02-28T07:17:09;-1.00;99.90
26182;DHT22;13927;51.534;11.866;2023-02-28T07:19:40;-0.90;99.90
26182;DHT22;13927;51.534;11.866;2023-02-28T07:22:06;-0.70;99.90
26182;DHT22;13927;51.534;11.866;2023-02-28T07:24:32;-0.60;99.90
26182;DHT22;13927;51.534;11.866;2023-02-28T07:26:58;-0.50;99.90
26182;DHT22;13927;51.534;11.866;2023-02-28T07:29:25;-0.30;99.90
26182;DHT22;13927;51.534;11.866;2023-02-28T07:31:51;-0.20;99.90
26182;DHT22;13927;51.534;11.866;2023-02-28T07:34:19;0.00;99.90
26182;DHT22;13927;51.534;11.866;2023-02-28T07:36:45;0.10;99.90
26182;DHT22;13927;51.534;11.866;2023-02-28T07:39:11;0.30;99.90
26182;DHT22;13927;51.534;11.866;2023-02-28T07:41:36;0.50;99.90
26182;DHT22;13927;51.534;11.866;2023-02-28T07:44:11;0.70;99.90
26182;DHT22;13927;51.534;11.866;2023-02-28T07:46:37;1.00;99.90
26182;DHT22;13927;51.534;11.866;2023-02-28T07:49:04;1.20;99.90
26182;DHT22;13927;51.534;11.866;2023-02-28T07:51:30;1.40;99.90
26182;DHT22;13927;51.534;11.866;2023-02-28T07:53:56;1.60;99.90
26182;DHT22;13927;51.534;11.866;2023-02-28T07:56:22;1.90;99.90
26182;DHT22;13927;51.534;11.866;2023-02-28T07:58:48;2.10;99.90
26182;DHT22;13927;51.534;11.866;2023-02-28T08:01:14;2.30;99.90
26182;DHT22;13927;51.534;11.866;2023-02-28T08:03:40;2.60;99.90
26182;DHT22;13927;51.534;11.866;2023-02-28T08:06:08;2.80;99.90
26182;DHT22;13927;51.534;11.866;2023-02-28T08:08:41;2.90;99.90
26182;DHT22;13927;51.534;11.866;2023-02-28T08:11:07;3.10;99.90
26182;DHT22;13927;51.534;11.866;2023-02-28T08:13:33;3.30;99.90
26182;DHT22;13927;51.534;11.866;2023-02-28T08:16:01;3.50;99.90
26182;DHT22;13927;51.534;11.866;2023-02-28T08:18:27;3.70;99.90
26182;DHT22;13927;51.534;11.866;2023-02-28T08:20:53;3.90;99.90
26182;DHT22;13927;51.534;11.866;2023-02-28T08:23:19;4.10;99.90
26182;DHT22;13927;51.534;11.866;2023-02-28T08:25:45;4.20;99.90
26182;DHT22;13927;51.534;11.866;2023-02-28T08:28:18;4.40;99.90
26182;DHT22;13927;51.534;11.866;2023-02-28T08:30:44;4.50;99.90
26182;DHT22;13927;51.534;11.866;2023-02-28T08:33:09;4.60;99.90
26182;DHT22;13927;51.534;11.866;2023-02-28T08:35:36;4.60;99.90
26182;DHT22;13927;51.534;11.866;2023-02-28T08:38:02;4.70;99.90
26182;DHT22;13927;51.534;11.866;2023-02-28T08:40:28;4.80;99.90
26182;DHT22;13927;51.534;11.866;2023-02-28T08:42:54;4.90;99.90
26182;DHT22;13927;51.534;11.866;2023-02-28T08:45:19;5.00;99.90
26182;DHT22;13927;51.534;11.866;2023-02-28T08:47:45;5.10;99.90
26182;DHT22;13927;51.534;11.866;2023-02-28T08:50:11;5.20;99.90
26182;DHT22;13927;51.534;11.866;2023-02-28T08:52:42;5.30;99.90
26182;DHT22;13927;51.534;11.866;2023-02-28T08:55:09;5.40;99.90
26182;DHT22;13927;51.534;11.866;2023-02-28T08:57:35;5.50;99.90
26182;DHT22;13927;51.534;11.866;2023-02-28T09:00:02;5.40;99.90
26182;DHT22;13927;51.534;11.866;2023-02-28T09:02:30;5.50;99.90
26182;DHT22;13927;51.534;11.866;2023-02-28T09:04:57;5.60;99.90
26182;DHT22;13927;51.534;11.866;2023-02-28T09:07:23;5.80;99.90
26182;DHT22;13927;51.534;11.866;2023-02-28T09:09:49;5.90;99.90
26182;DHT22;13927;51.534;11.866;2023-02-28T09:12:24;6.10;99.90
26182;DHT22;13927;51.534;11.866;2023-02-28T09:14:51;6.20;99.90
26182;DHT22;13927;51.534;11.866;2023-02-28T09:17:18;6.30;99.90
26182;DHT22;13927;51.534;11.866;2023-02-28T09:19:43;6.30;99.90
26182;DHT22;13927;51.534;11.866;2023-02-28T09:22:10;6.40;99.90
26182;DHT22;13927;51.534;11.866;2023-02-28T09:24:37;6.50;99.90
26182;DHT22;13927;51.534;11.866;2023-02-28T09:27:04;6.70;99.90
26182;DHT22;13927;51.534;11.866;2023-02-28T09:29:31;6.80;99.90
26182;DHT22;13927;51.534;11.866;2023-02-28T09:31:57;6.90;99.90
26182;DHT22;13927;51.534;11.866;2023-02-28T09:34:24;7.00;99.90
26182;DHT22;13927;51.534;11.866;2023-02-28T09:36:51;7.20;99.90
26182;DHT22;13927;51.534;11.866;2023-02-28T09:39:21;7.30;99.90
26182;DHT22;13927;51.534;11.866;2023-02-28T09:41:50;7.40;99.90
26182;DHT22;13927;51.534;11.866;2023-02-28T09:44:38;7.50;99.90
26182;DHT22;13927;51.534;11.866;2023-02-28T09:50:29;7.10;99.90
26182;DHT22;13927;51.534;11.866;2023-02-28T09:52:58;6.90;99.90
26182;DHT22;13927;51.534;11.866;2023-02-28T09:55:39;6.50;99.90
26182;DHT22;13927;51.534;11.866;2023-02-28T09:58:44;6.20;99.90
26182;DHT22;13927;51.534;11.866;2023-02-28T10:04:54;5.90;99.90
26182;DHT22;13927;51.534;11.866;2023-02-28T10:10:46;6.60;99.90
26182;DHT22;13927;51.534;11.866;2023-02-28T10:16:46;7.10;99.90
26182;DHT22;13927;51.534;11.866;2023-02-28T10:19:42;7.30;99.90
26182;DHT22;13927;51.534;11.866;2023-02-28T10:25:16;8.00;99.90
26182;DHT22;13927;51.534;11.866;2023-02-28T10:27:44;8.20;99.90
26182;DHT22;13927;51.534;11.866;2023-02-28T10:30:11;8.30;99.90
26182;DHT22;13927;51.534;11.866;2023-02-28T10:32:39;8.20;99.90
26182;DHT22;13927;51.534;11.866;2023-02-28T10:35:18;8.10;99.90
26182;DHT22;13927;51.534;11.866;2023-02-28T10:37:53;8.20;99.90
26182;DHT22;13927;51.534;11.866;2023-02-28T10:43:00;8.40;99.90
26182;DHT22;13927;51.534;11.866;2023-02-28T10:45:32;8.30;99.90
26182;DHT22;13927;51.534;11.866;2023-02-28T10:48:45;8.40;99.90
26182;DHT22;13927;51.534;11.866;2023-02-28T10:51:18;8.50;99.90
26182;DHT22;13927;51.534;11.866;2023-02-28T10:53:54;8.50;99.90
26182;DHT22;13927;51.534;11.866;2023-02-28T10:56:22;8.50;99.90
26182;DHT22;13927;51.534;11.866;2023-02-28T11:01:45;8.60;99.90
26182;DHT22;13927;51.534;11.866;2023-02-28T11:07:20;9.30;99.90
26182;DHT22;13927;51.534;11.866;2023-02-28T11:09:52;9.50;99.90
26182;DHT22;13927;51.534;11.866;2023-02-28T11:12:22;9.60;99.90
26182;DHT22;13927;51.534;11.866;2023-02-28T11:14:51;9.50;99.90
26182;DHT22;13927;51.534;11.866;2023-02-28T11:17:22;9.40;99.90
26182;DHT22;13927;51.534;11.866;2023-02-28T11:19:55;9.30;99.90
26182;DHT22;13927;51.534;11.866;2023-02-28T11:22:26;9.60;99.90
26182;DHT22;13927;51.534;11.866;2023-02-28T11:25:01;9.70;99.90
26182;DHT22;13927;51.534;11.866;2023-02-28T11:30:02;10.30;99.90
26182;DHT22;13927;51.534;11.866;2023-02-28T11:32:30;10.30;99.90
26182;DHT22;13927;51.534;11.866;2023-02-28T11:37:38;10.20;99.90
26182;DHT22;13927;51.534;11.866;2023-02-28T11:40:36;10.20;99.90
26182;DHT22;13927;51.534;11.866;2023-02-28T11:52:34;9.70;99.90
26182;DHT22;13927;51.534;11.866;2023-02-28T12:06:54;9.40;99.90
26182;DHT22;13927;51.534;11.866;2023-02-28T12:13:12;9.40;99.90
26182;DHT22;13927;51.534;11.866;2023-02-28T12:19:13;9.30;99.90
26182;DHT22;13927;51.534;11.866;2023-02-28T12:24:34;9.90;99.90
26182;DHT22;13927;51.534;11.866;2023-02-28T12:27:07;10.20;99.90
26182;DHT22;13927;51.534;11.866;2023-02-28T12:30:08;10.60;99.90
26182;DHT22;13927;51.534;11.866;2023-02-28T12:32:44;10.30;99.90
26182;DHT22;13927;51.534;11.866;2023-02-28T12:35:16;10.40;99.90
26182;DHT22;13927;51.534;11.866;2023-02-28T12:37:46;10.50;99.90
26182;DHT22;13927;51.534;11.866;2023-02-28T12:40:23;10.80;99.90
26182;DHT22;13927;51.534;11.866;2023-02-28T12:43:13;10.70;99.90
26182;DHT22;13927;51.534;11.866;2023-02-28T12:45:55;10.50;99.90
26182;DHT22;13927;51.534;11.866;2023-02-28T12:48:29;10.70;99.90
26182;DHT22;13927;51.534;11.866;2023-02-28T12:51:06;10.70;99.90
26182;DHT22;13927;51.534;11.866;2023-02-28T12:54:01;10.50;99.90
26182;DHT22;13927;51.534;11.866;2023-02-28T12:59:38;10.50;99.90
26182;DHT22;13927;51.534;11.866;2023-02-28T13:05:50;10.60;99.90
26182;DHT22;13927;51.534;11.866;2023-02-28T13:11:50;11.00;99.90
26182;DHT22;13927;51.534;11.866;2023-02-28T13:14:29;11.30;99.90
26182;DHT22;13927;51.534;11.866;2023-02-28T13:17:12;11.70;99.90
26182;DHT22;13927;51.534;11.866;2023-02-28T13:22:43;11.60;99.90
26182;DHT22;13927;51.534;11.866;2023-02-28T13:27:53;11.60;99.90
26182;DHT22;13927;51.534;11.866;2023-02-28T13:33:35;11.80;99.90
26182;DHT22;13927;51.534;11.866;2023-02-28T13:38:55;12.00;99.90
26182;DHT22;13927;51.534;11.866;2023-02-28T13:44:21;12.10;99.90
26182;DHT22;13927;51.534;11.866;2023-02-28T13:52:16;12.60;99.90
26182;DHT22;13927;51.534;11.866;2023-02-28T13:55:19;12.80;99.90
26182;DHT22;13927;51.534;11.866;2023-02-28T14:06:55;12.80;99.90
26182;DHT22;13927;51.534;11.866;2023-02-28T14:09:35;12.30;99.90
26182;DHT22;13927;51.534;11.866;2023-02-28T14:21:09;11.40;99.90
26182;DHT22;13927;51.534;11.866;2023-02-28T14:27:00;11.30;99.90
26182;DHT22;13927;51.534;11.866;2023-02-28T14:30:08;10.80;99.90
26182;DHT22;13927;51.534;11.866;2023-02-28T14:36:04;10.50;99.90
26182;DHT22;13927;51.534;11.866;2023-02-28T14:38:57;10.50;99.90
26182;DHT22;13927;51.534;11.866;2023-02-28T14:41:33;10.50;99.90
26182;DHT22;13927;51.534;11.866;2023-02-28T14:44:12;10.90;99.90
26182;DHT22;13927;51.534;11.866;2023-02-28T14:46:52;11.20;99.90
26182;DHT22;13927;51.534;11.866;2023-02-28T14:49:24;11.10;99.90
26182;DHT22;13927;51.534;11.866;2023-02-28T14:54:41;11.00;99.90
26182;DHT22;13927;51.534;11.866;2023-02-28T14:57:25;11.10;99.90
26182;DHT22;13927;51.534;11.866;2023-02-28T15:00:23;11.10;99.90
26182;DHT22;13927;51.534;11.866;2023-02-28T15:02:51;11.60;99.90
26182;DHT22;13927;51.534;11.866;2023-02-28T15:08:15;12.20;99.90
26182;DHT22;13927;51.534;11.866;2023-02-28T15:10:45;12.60;99.90
26182;DHT22;13927;51.534;11.866;2023-02-28T15:13:17;13.00;99.90
26182;DHT22;13927;51.534;11.866;2023-02-28T15:20:51;12.60;98.10
26182;DHT22;13927;51.534;11.866;2023-02-28T15:23:18;12.60;99.70
26182;DHT22;13927;51.534;11.866;2023-02-28T15:25:45;12.60;99.60
26182;DHT22;13927;51.534;11.866;2023-02-28T15:28:16;12.70;98.00
26182;DHT22;13927;51.534;11.866;2023-02-28T15:30:53;12.80;98.60
26182;DHT22;13927;51.534;11.866;2023-02-28T15:33:28;12.50;99.20
26182;DHT22;13927;51.534;11.866;2023-02-28T15:36:07;12.40;99.10
26182;DHT22;13927;51.534;11.866;2023-02-28T15:38:38;12.50;99.30
26182;DHT22;13927;51.534;11.866;2023-02-28T15:41:03;12.50;98.90
26182;DHT22;13927;51.534;11.866;2023-02-28T15:43:36;12.60;99.60
26182;DHT22;13927;51.534;11.866;2023-02-28T15:46:11;12.70;98.90
26182;DHT22;13927;51.534;11.866;2023-02-28T15:48:45;12.90;98.80
26182;DHT22;13927;51.534;11.866;2023-02-28T15:53:56;12.30;98.00
26182;DHT22;13927;51.534;11.866;2023-02-28T15:56:26;12.20;98.20
26182;DHT22;13927;51.534;11.866;2023-02-28T15:59:03;12.30;99.00
26182;DHT22;13927;51.534;11.866;2023-02-28T16:01:36;12.40;97.90
26182;DHT22;13927;51.534;11.866;2023-02-28T16:04:14;12.10;97.70
26182;DHT22;13927;51.534;11.866;2023-02-28T16:07:12;12.00;99.10
26182;DHT22;13927;51.534;11.866;2023-02-28T16:09:37;11.70;99.00
26182;DHT22;13927;51.534;11.866;2023-02-28T16:12:05;11.20;99.50
26182;DHT22;13927;51.534;11.866;2023-02-28T16:14:31;10.90;99.90
26182;DHT22;13927;51.534;11.866;2023-02-28T16:17:04;10.70;99.90
26182;DHT22;13927;51.534;11.866;2023-02-28T16:19:32;10.60;99.90
26182;DHT22;13927;51.534;11.866;2023-02-28T16:21:58;10.50;99.90
26182;DHT22;13927;51.534;11.866;2023-02-28T16:24:23;10.20;99.90
26182;DHT22;13927;51.534;11.866;2023-02-28T16:26:52;9.90;99.90
26182;DHT22;13927;51.534;11.866;2023-02-28T16:29:39;9.30;99.90
26182;DHT22;13927;51.534;11.866;2023-02-28T16:32:06;8.90;99.90
26182;DHT22;13927;51.534;11.866;2023-02-28T16:34:32;8.40;99.90
26182;DHT22;13927;51.534;11.866;2023-02-28T16:36:58;8.00;99.90
26182;DHT22;13927;51.534;11.866;2023-02-28T16:39:24;7.60;99.90
26182;DHT22;13927;51.534;11.866;2023-02-28T16:41:50;7.20;99.90
26182;DHT22;13927;51.534;11.866;2023-02-28T16:44:29;6.80;99.90
26182;DHT22;13927;51.534;11.866;2023-02-28T16:46:56;6.50;99.90
26182;DHT22;13927;51.534;11.866;2023-02-28T16:49:22;6.20;99.90
26182;DHT22;13927;51.534;11.866;2023-02-28T16:51:48;5.90;99.90
26182;DHT22;13927;51.534;11.866;2023-02-28T16:54:13;5.70;99.90
26182;DHT22;13927;51.534;11.866;2023-02-28T16:56:43;5.60;99.90
26182;DHT22;13927;51.534;11.866;2023-02-28T16:59:11;5.30;99.90
26182;DHT22;13927;51.534;11.866;2023-02-28T17:01:38;5.20;99.90
26182;DHT22;13927;51.534;11.866;2023-02-28T17:04:03;5.00;99.90
26182;DHT22;13927;51.534;11.866;2023-02-28T17:06:30;4.90;99.90
26182;DHT22;13927;51.534;11.866;2023-02-28T17:08:57;4.80;99.90
26182;DHT22;13927;51.534;11.866;2023-02-28T17:11:24;4.60;99.90
26182;DHT22;13927;51.534;11.866;2023-02-28T17:13:50;4.50;99.90
26182;DHT22;13927;51.534;11.866;2023-02-28T17:16:31;4.40;99.90
26182;DHT22;13927;51.534;11.866;2023-02-28T17:19:02;4.30;99.90
26182;DHT22;13927;51.534;11.866;2023-02-28T17:21:30;4.30;99.90
26182;DHT22;13927;51.534;11.866;2023-02-28T17:23:56;4.10;99.90
26182;DHT22;13927;51.534;11.866;2023-02-28T17:26:23;4.10;99.90
26182;DHT22;13927;51.534;11.866;2023-02-28T17:28:54;4.00;99.90
26182;DHT22;13927;51.534;11.866;2023-02-28T17:31:21;3.90;99.90
26182;DHT22;13927;51.534;11.866;2023-02-28T17:33:48;3.80;99.90
26182;DHT22;13927;51.534;11.866;2023-02-28T17:36:16;3.70;99.90
26182;DHT22;13927;51.534;11.866;2023-02-28T17:38:48;3.70;99.90
26182;DHT22;13927;51.534;11.866;2023-02-28T17:41:14;3.60;99.90
26182;DHT22;13927;51.534;11.866;2023-02-28T17:43:40;3.50;99.90
26182;DHT22;13927;51.534;11.866;2023-02-28T17:46:18;3.40;99.90
26182;DHT22;13927;51.534;11.866;2023-02-28T17:48:50;3.30;99.90
26182;DHT22;13927;51.534;11.866;2023-02-28T17:51:17;3.30;99.90
26182;DHT22;13927;51.534;11.866;2023-02-28T17:53:44;3.20;99.90
26182;DHT22;13927;51.534;11.866;2023-02-28T17:56:21;3.10;99.90
26182;DHT22;13927;51.534;11.866;2023-02-28T17:58:49;3.00;99.90
26182;DHT22;13927;51.534;11.866;2023-02-28T18:01:16;2.80;99.90
26182;DHT22;13927;51.534;11.866;2023-02-28T18:03:42;2.60;99.90
26182;DHT22;13927;51.534;11.866;2023-02-28T18:06:35;2.50;99.90
26182;DHT22;13927;51.534;11.866;2023-02-28T18:09:12;2.40;99.90
26182;DHT22;13927;51.534;11.866;2023-02-28T18:11:39;2.20;99.90
26182;DHT22;13927;51.534;11.866;2023-02-28T18:14:09;2.10;99.90
26182;DHT22;13927;51.534;11.866;2023-02-28T18:16:35;2.00;99.90
26182;DHT22;13927;51.534;11.866;2023-02-28T18:19:03;1.90;99.90
26182;DHT22;13927;51.534;11.866;2023-02-28T18:21:29;1.80;99.90
26182;DHT22;13927;51.534;11.866;2023-02-28T18:23:54;1.70;99.90
26182;DHT22;13927;51.534;11.866;2023-02-28T18:26:22;1.60;99.90
26182;DHT22;13927;51.534;11.866;2023-02-28T18:28:48;1.60;99.90